Главная страница
METAR-TAF:

METAR-TAF

Аэропорты :

Берлин-Тегель

Берлин, Германия

широта: 52-34N, долгота: 013-19E, высота над уровнем моря: 37 м

Текущие метеонаблюдения

Эта сводка был подготовлена 31 минут назад, в 00:20 UTC
Ветер 9 Узел от западный
Температура 6°C
Влажность 87%
Давление 1031 hPa
Видимость 10 км и более
Нет облачности ниже 1500 м, и нет кучево-дождевой облачности

METAR: EDDT 250020Z 28009KT CAVOK 06/04 Q1031

Время: 02:51 (00:51 UTC)

Прогноз

Эта сводка был подготовлена 1 час и 51 минут назад, в 23:00 UTC
Прогноз действительный с 25-го 00 UTC до 25-го 24 UTC
Ветер 10 Узел от западно-северо-западный
Видимость 10 км и более
Нет облачности ниже 1500 м, и нет кучево-дождевой облачности
Вероятность 30% :
временами
С 25-го 05 UTC до 25-го 08 UTC
Рассеянная облачность на высоте 1200 фута
изменения
С 25-го 18 UTC до 25-го 21 UTC
Ветер 5 Узел от юго-западный

TAF: EDDT 242300Z 2500/2524 29010KT CAVOK PROB30 TEMPO 2505/2508 BKN012 BECMG 2518/2521 22005KT

Метеонаблюдения и прогнозы для более 4000 аэропортов (сводки METAR и TAF).

Имеющиеся станции представлены на карте желтыми и красными точками.

Чтобы увидеть название станции, наведите на нее мышь.

Затем щелкните, чтобы увидеть метеонаблюдения и метеопрогнозы.

Управление картой: чтобы увеличить масштаб, щелкните зеленые кнопки с черным крестиком; чтобы уменьшить масштаб, щелкните зеленую кнопку с тире; для просмотра соседних карт щелкайте зеленые стрелки.


METAR-TAF: